DLH890 EDDF-EVRA
Flight info
| Callsign | DLH890 |
|---|---|
| Flight time | N/A |
| Altitude | 39000 |
| Route | MARUN8M/25C MARUN Y150 TOLGI DCT GARLU DCT BANUB DCT GOSOT DCT NINTA DCT ADAXA DCT ORVIX |
| Aircraft | A320/M-SDE2E3FGIJ1LORWXYZ/HB1 |
Departure
| Time | 2026-04-18 08:58 |
|---|---|
| Airport | Frankfurt Main Airport (EDDF) |
Arrival
| Time | N/A |
|---|---|
| Airport | Riga International Airport (EVRA) |
| Time | Latitude | Longitude | Altitude | Speed | Heading |
|---|---|---|---|---|---|
| 2026-04-18 08:27 | 50.04883 | 8.57153 | 363 ft | 0 kts | 161° |
| 2026-04-18 08:52 | 50.04876 | 8.57151 | 356 ft | 1 kts | 187° |
| 2026-04-18 08:52 | 50.04864 | 8.57139 | 356 ft | 5 kts | 219° |
| 2026-04-18 08:52 | 50.04848 | 8.57088 | 356 ft | 5 kts | 242° |
| 2026-04-18 08:53 | 50.04825 | 8.57059 | 364 ft | 4 kts | 208° |
| 2026-04-18 08:53 | 50.04803 | 8.57041 | 356 ft | 4 kts | 207° |
| 2026-04-18 08:53 | 50.04755 | 8.57007 | 356 ft | 9 kts | 204° |
| 2026-04-18 08:53 | 50.04704 | 8.56971 | 356 ft | 8 kts | 204° |
| 2026-04-18 08:54 | 50.04658 | 8.56937 | 358 ft | 9 kts | 205° |
| 2026-04-18 08:54 | 50.04586 | 8.56903 | 357 ft | 10 kts | 194° |
| 2026-04-18 08:54 | 50.04530 | 8.56883 | 361 ft | 10 kts | 193° |
| 2026-04-18 08:54 | 50.04444 | 8.56853 | 366 ft | 13 kts | 191° |
| 2026-04-18 08:55 | 50.04362 | 8.56831 | 360 ft | 11 kts | 190° |
| 2026-04-18 08:55 | 50.04296 | 8.56828 | 364 ft | 9 kts | 156° |
| 2026-04-18 08:55 | 50.04282 | 8.56920 | 359 ft | 12 kts | 73° |
| 2026-04-18 08:55 | 50.04311 | 8.57046 | 360 ft | 13 kts | 69° |
| 2026-04-18 08:56 | 50.04343 | 8.57183 | 361 ft | 15 kts | 70° |
| 2026-04-18 08:56 | 50.04383 | 8.57350 | 361 ft | 17 kts | 70° |
| 2026-04-18 08:56 | 50.04427 | 8.57536 | 362 ft | 17 kts | 70° |
| 2026-04-18 08:56 | 50.04392 | 8.57654 | 365 ft | 12 kts | 159° |
| 2026-04-18 08:57 | 50.04260 | 8.57641 | 364 ft | 9 kts | 250° |
| 2026-04-18 08:57 | 50.04210 | 8.57424 | 367 ft | 50 kts | 250° |
| 2026-04-18 08:57 | 50.03998 | 8.56542 | 359 ft | 121 kts | 250° |
| 2026-04-18 08:58 | 50.03639 | 8.55037 | 420 ft | 167 kts | 251° |
| 2026-04-18 08:58 | 50.03237 | 8.53362 | 1132 ft | 166 kts | 251° |
| 2026-04-18 08:58 | 50.02819 | 8.51666 | 1789 ft | 175 kts | 251° |
| 2026-04-18 08:58 | 50.02209 | 8.49934 | 2238 ft | 194 kts | 224° |
| 2026-04-18 08:59 | 50.00953 | 8.48995 | 2760 ft | 209 kts | 198° |
| 2026-04-18 08:59 | 49.99505 | 8.48355 | 3403 ft | 220 kts | 196° |
| 2026-04-18 08:59 | 49.98019 | 8.47756 | 4293 ft | 220 kts | 195° |
| 2026-04-18 08:59 | 49.96540 | 8.47189 | 5234 ft | 220 kts | 195° |
| 2026-04-18 09:00 | 49.95040 | 8.46589 | 5951 ft | 231 kts | 196° |
| 2026-04-18 09:00 | 49.93449 | 8.45886 | 6658 ft | 241 kts | 197° |
| 2026-04-18 09:00 | 49.91849 | 8.45046 | 7478 ft | 246 kts | 209° |
| 2026-04-18 09:00 | 49.90598 | 8.43248 | 8299 ft | 251 kts | 239° |
| 2026-04-18 09:01 | 49.90117 | 8.40659 | 9143 ft | 256 kts | 270° |
| 2026-04-18 09:01 | 49.90586 | 8.38030 | 10012 ft | 262 kts | 302° |
| 2026-04-18 09:01 | 49.91952 | 8.36105 | 10797 ft | 270 kts | 332° |
| 2026-04-18 09:01 | 49.93724 | 8.34905 | 11139 ft | 294 kts | 335° |
| 2026-04-18 09:02 | 49.95717 | 8.33616 | 11408 ft | 318 kts | 336° |
| 2026-04-18 09:02 | 49.97798 | 8.32272 | 11996 ft | 328 kts | 335° |
| 2026-04-18 09:02 | 49.99889 | 8.30913 | 12786 ft | 331 kts | 335° |
| 2026-04-18 09:02 | 50.02040 | 8.29584 | 13599 ft | 335 kts | 340° |
| 2026-04-18 09:03 | 50.04346 | 8.28878 | 14361 ft | 342 kts | 353° |
| 2026-04-18 09:03 | 50.06747 | 8.29010 | 15060 ft | 349 kts | 6° |
| 2026-04-18 09:03 | 50.09117 | 8.29989 | 15741 ft | 356 kts | 15° |
| 2026-04-18 09:03 | 50.11470 | 8.31226 | 16419 ft | 359 kts | 15° |
| 2026-04-18 09:04 | 50.13852 | 8.32481 | 17085 ft | 363 kts | 15° |
| 2026-04-18 09:04 | 50.16258 | 8.33747 | 17742 ft | 367 kts | 15° |
| 2026-04-18 09:04 | 50.18690 | 8.35022 | 18399 ft | 371 kts | 15° |
| 2026-04-18 09:04 | 50.21150 | 8.36316 | 18976 ft | 375 kts | 15° |
| 2026-04-18 09:05 | 50.23635 | 8.37627 | 19551 ft | 378 kts | 15° |
| 2026-04-18 09:05 | 50.26137 | 8.38946 | 20142 ft | 381 kts | 15° |
| 2026-04-18 09:05 | 50.28664 | 8.40278 | 20720 ft | 385 kts | 15° |
| 2026-04-18 09:05 | 50.31209 | 8.41631 | 21296 ft | 388 kts | 16° |
| 2026-04-18 09:06 | 50.33770 | 8.43018 | 21866 ft | 391 kts | 16° |
| 2026-04-18 09:06 | 50.36351 | 8.44429 | 22437 ft | 395 kts | 17° |
| 2026-04-18 09:06 | 50.38958 | 8.45862 | 22991 ft | 399 kts | 17° |
| 2026-04-18 09:06 | 50.41589 | 8.47310 | 23547 ft | 403 kts | 17° |
| 2026-04-18 09:07 | 50.44240 | 8.48770 | 24040 ft | 406 kts | 17° |
| 2026-04-18 09:07 | 50.46918 | 8.50243 | 24502 ft | 409 kts | 16° |
| 2026-04-18 09:07 | 50.49624 | 8.51673 | 24953 ft | 411 kts | 15° |
| 2026-04-18 09:07 | 50.52365 | 8.53015 | 25396 ft | 414 kts | 14° |
| 2026-04-18 09:08 | 50.55129 | 8.54306 | 25826 ft | 416 kts | 13° |
| 2026-04-18 09:08 | 50.57919 | 8.55589 | 26251 ft | 419 kts | 13° |
| 2026-04-18 09:08 | 50.60727 | 8.56891 | 26652 ft | 422 kts | 13° |
| 2026-04-18 09:08 | 50.62593 | 8.57766 | 26917 ft | 424 kts | 13° |
| 2026-04-18 09:09 | 50.65435 | 8.59116 | 27297 ft | 427 kts | 13° |
| 2026-04-18 09:09 | 50.68285 | 8.60487 | 27690 ft | 430 kts | 14° |
| 2026-04-18 09:09 | 50.71152 | 8.61875 | 28086 ft | 432 kts | 14° |
| 2026-04-18 09:09 | 50.73951 | 8.63233 | 28456 ft | 435 kts | 14° |
| 2026-04-18 09:10 | 50.76851 | 8.64651 | 28833 ft | 438 kts | 15° |
| 2026-04-18 09:10 | 50.79667 | 8.66557 | 29184 ft | 445 kts | 25° |
| 2026-04-18 09:10 | 50.82281 | 8.69229 | 29536 ft | 451 kts | 36° |
| 2026-04-18 09:10 | 50.84607 | 8.72591 | 29877 ft | 456 kts | 45° |
| 2026-04-18 09:11 | 50.86613 | 8.76519 | 30211 ft | 461 kts | 51° |
| 2026-04-18 09:11 | 50.88560 | 8.80568 | 30504 ft | 463 kts | 51° |
| 2026-04-18 09:11 | 50.90485 | 8.84583 | 30784 ft | 465 kts | 51° |
| 2026-04-18 09:11 | 50.92438 | 8.88679 | 31062 ft | 467 kts | 51° |
| 2026-04-18 09:12 | 50.94399 | 8.92805 | 31354 ft | 469 kts | 51° |
| 2026-04-18 09:12 | 50.96364 | 8.96942 | 31634 ft | 470 kts | 51° |
| 2026-04-18 09:12 | 50.98336 | 9.01089 | 31970 ft | 470 kts | 51° |
| 2026-04-18 09:12 | 51.00307 | 9.05229 | 32375 ft | 470 kts | 51° |
| 2026-04-18 09:13 | 51.02275 | 9.09363 | 32755 ft | 469 kts | 51° |
| 2026-04-18 09:13 | 51.04235 | 9.13497 | 33128 ft | 468 kts | 51° |
| 2026-04-18 09:13 | 51.06187 | 9.17627 | 33503 ft | 467 kts | 51° |
| 2026-04-18 09:13 | 51.08241 | 9.21601 | 33867 ft | 464 kts | 44° |
| 2026-04-18 09:14 | 51.10635 | 9.25009 | 34218 ft | 461 kts | 34° |
| 2026-04-18 09:14 | 51.13321 | 9.27741 | 34519 ft | 456 kts | 24° |
| 2026-04-18 09:14 | 51.16217 | 9.29726 | 34807 ft | 452 kts | 14° |
| 2026-04-18 09:14 | 51.19247 | 9.30977 | 35083 ft | 448 kts | 8° |
| 2026-04-18 09:15 | 51.22295 | 9.32014 | 35348 ft | 448 kts | 8° |
| 2026-04-18 09:15 | 51.25348 | 9.33064 | 35580 ft | 449 kts | 8° |
| 2026-04-18 09:15 | 51.28407 | 9.34126 | 35828 ft | 449 kts | 8° |
| 2026-04-18 09:15 | 51.31459 | 9.35193 | 36081 ft | 449 kts | 8° |
| 2026-04-18 09:16 | 51.34511 | 9.36260 | 36328 ft | 449 kts | 8° |
| 2026-04-18 09:16 | 51.37561 | 9.37329 | 36574 ft | 449 kts | 8° |
| 2026-04-18 09:16 | 51.40609 | 9.38398 | 36813 ft | 448 kts | 8° |
| 2026-04-18 09:16 | 51.43657 | 9.39466 | 37063 ft | 448 kts | 8° |
| 2026-04-18 09:17 | 51.46610 | 9.40497 | 37176 ft | 448 kts | 8° |
| 2026-04-18 09:17 | 51.49652 | 9.41554 | 37195 ft | 447 kts | 8° |
| 2026-04-18 09:17 | 51.55719 | 9.43670 | 37192 ft | 446 kts | 8° |
| 2026-04-18 09:18 | 51.61778 | 9.45801 | 37186 ft | 446 kts | 8° |
| 2026-04-18 09:18 | 51.67834 | 9.47940 | 37198 ft | 446 kts | 8° |
| 2026-04-18 09:19 | 51.73913 | 9.50100 | 37183 ft | 447 kts | 8° |
| 2026-04-18 09:19 | 51.79961 | 9.52490 | 37181 ft | 451 kts | 17° |
| 2026-04-18 09:20 | 51.85483 | 9.57386 | 37179 ft | 458 kts | 36° |
| 2026-04-18 09:20 | 51.90170 | 9.64437 | 37185 ft | 460 kts | 41° |
| 2026-04-18 09:21 | 51.94810 | 9.71594 | 37181 ft | 460 kts | 41° |
| 2026-04-18 09:21 | 51.99457 | 9.78755 | 37181 ft | 461 kts | 41° |
| 2026-04-18 09:22 | 52.04099 | 9.85950 | 37183 ft | 461 kts | 41° |
| 2026-04-18 09:22 | 52.08726 | 9.93147 | 37193 ft | 460 kts | 41° |
| 2026-04-18 09:23 | 52.13308 | 10.00311 | 37199 ft | 460 kts | 41° |
| 2026-04-18 09:23 | 52.17912 | 10.07547 | 37196 ft | 460 kts | 41° |
| 2026-04-18 09:24 | 52.22517 | 10.14788 | 37191 ft | 460 kts | 41° |
| 2026-04-18 09:24 | 52.27120 | 10.22030 | 37188 ft | 460 kts | 41° |
| 2026-04-18 09:25 | 52.31717 | 10.29298 | 37203 ft | 460 kts | 41° |
| 2026-04-18 09:25 | 52.36314 | 10.36592 | 37196 ft | 461 kts | 42° |
| 2026-04-18 09:26 | 52.40905 | 10.43901 | 37189 ft | 460 kts | 42° |
| 2026-04-18 09:26 | 52.45492 | 10.51220 | 37168 ft | 460 kts | 42° |
| 2026-04-18 09:27 | 52.50061 | 10.58534 | 37191 ft | 459 kts | 41° |
| 2026-04-18 09:27 | 52.54622 | 10.65846 | 37208 ft | 458 kts | 41° |